OJAQ

Aqaba King Hussein International Airport

Aqaba, Jordan
OJAQ 221100Z 2212/2318 36012KT 7000 NSC
Issued Valid From Valid To
Jan-22 @ 11:00 UTC
(6 hours ago)
Jan-22 @ 12:00 UTC
(5 hours ago)
Jan-23 @ 18:00 UTC
(-1 days ago)
Jan-22 @ 12:00 to Jan-23 @ 18:00
OJAQ 221100Z 2212/2318 36012KT 7000 NSC
Wind Visibility Clouds
360° at 12 knots 7,001 meters
  • No significant clouds
OJAQ 221100Z 2212/2318 36012KT 7000 NSC
Issued Jan-22 @ 11:00 UTC
(6 hours ago)
Valid From Jan-22 @ 12:00 UTC
(5 hours ago)
Valid To Jan-23 @ 18:00 UTC
(-1 days ago)
Jan-22 @ 12:00 - Jan-23 @ 18:00
Wind Visibility
360° at 12 knots 7,001 meters
Clouds
  • No significant clouds